Time;durP1;ratioP1;P1;durP2;ratioP2;P2;SDS_P1;SDS_P2;PMS_P1;PMS_P2;Temp;Humidity;BMP_temperature;BMP_pressure;BME280_temperature;BME280_humidity;BME280_pressure;Samples;Min_cycle;Max_cycle;Signal;HPM_P1;HPM_P2
2023/07/12 00:02:03;;;;;;;5.57;2.03;;;;;;;22.33;89.60;100771.16;5240070;28;20486;-73
2023/07/12 00:04:34;;;;;;;4.20;1.40;;;;;;;22.69;84.74;100760.03;5235669;28;20017;-74
2023/07/12 00:07:11;;;;;;;4.50;2.00;;;;;;;22.45;89.88;100771.63;5247310;28;20033;-72
2023/07/12 00:09:43;;;;;;;3.37;1.57;;;;;;;22.24;90.58;100768.53;5232268;28;20033;-73
2023/07/12 00:12:14;;;;;;;2.77;1.60;;;;;;;22.73;85.91;100760.53;5235743;28;20029;-73
2023/07/12 00:14:45;;;;;;;2.63;1.90;;;;;;;22.63;85.23;100758.09;5234007;28;20041;-74
2023/07/12 00:17:18;;;;;;;4.10;1.70;;;;;;;22.70;85.21;100791.09;5236263;28;20033;-73
2023/07/12 00:19:49;;;;;;;4.63;2.03;;;;;;;22.75;86.45;100801.22;5233841;28;20061;-72
2023/07/12 00:22:22;;;;;;;3.40;2.10;;;;;;;22.62;87.65;100806.31;5243167;28;20068;-73
2023/07/12 00:24:53;;;;;;;4.67;1.93;;;;;;;22.56;89.03;100813.97;5225114;28;20041;-73
2023/07/12 00:27:24;;;;;;;7.60;2.20;;;;;;;22.54;85.56;100807.13;5242351;28;20021;-73
2023/07/12 00:29:56;;;;;;;3.53;1.83;;;;;;;22.60;86.79;100819.78;5227850;28;20124;-73
2023/07/12 00:32:27;;;;;;;5.67;1.97;;;;;;;22.40;88.46;100822.84;5235381;28;20084;-73
2023/07/12 00:34:58;;;;;;;5.07;2.47;;;;;;;22.50;86.42;100824.50;5226615;28;20057;-74
2023/07/12 00:37:30;;;;;;;7.30;2.50;;;;;;;22.28;85.89;100827.72;5236869;28;20029;-73
2023/07/12 00:40:02;;;;;;;5.57;2.63;;;;;;;22.23;87.26;100836.25;5249607;28;20017;-73
2023/07/12 00:42:37;;;;;;;5.10;2.50;;;;;;;22.35;86.48;100843.88;5241599;28;20078;-74
2023/07/12 00:45:10;;;;;;;7.80;2.10;;;;;;;22.50;85.05;100851.19;5255372;28;20495;-73
2023/07/12 00:47:43;;;;;;;7.47;1.83;;;;;;;22.30;84.63;100827.53;5239096;28;20067;-72
2023/07/12 00:50:19;;;;;;;3.47;1.95;;;;;;;22.52;82.51;100841.13;5235473;28;20040;-73
2023/07/12 00:52:51;;;;;;;5.60;2.17;;;;;;;22.40;81.70;100846.00;5248699;28;20029;-73
2023/07/12 00:55:58;;;;;;;10.47;2.47;;;;;;;22.50;80.56;100846.66;5250773;28;20031;-74
2023/07/12 00:58:45;;;;;;;5.80;2.43;;;;;;;22.47;81.65;100847.00;5236553;28;20052;-74
2023/07/12 01:01:17;;;;;;;6.53;2.00;;;;;;;21.99;85.50;100851.25;5246593;28;20730;-74
2023/07/12 01:03:48;;;;;;;7.63;2.30;;;;;;;22.03;81.83;100872.25;5241901;28;20032;-73
2023/07/12 01:06:20;;;;;;;7.10;2.57;;;;;;;21.86;81.87;100853.59;5231828;28;20029;-73
2023/07/12 01:08:51;;;;;;;6.53;2.73;;;;;;;22.02;79.61;100865.25;5243873;28;20048;-73
2023/07/12 01:11:23;;;;;;;4.73;2.60;;;;;;;22.01;79.84;100885.75;5236173;28;20072;-74
2023/07/12 01:13:54;;;;;;;7.93;2.90;;;;;;;21.88;80.76;100856.94;5235407;28;20075;-74
2023/07/12 01:16:26;;;;;;;5.03;2.80;;;;;;;21.88;82.81;100816.94;5242280;28;20100;-74
2023/07/12 01:18:57;;;;;;;8.63;3.40;;;;;;;21.75;80.01;100831.56;5235481;28;20030;-75
2023/07/12 01:21:32;;;;;;;5.57;2.70;;;;;;;21.69;83.25;100829.59;5242902;28;20422;-74
2023/07/12 01:24:03;;;;;;;7.63;4.10;;;;;;;21.55;84.29;100828.41;5229959;28;20033;-74
2023/07/12 01:26:39;;;;;;;6.80;3.23;;;;;;;21.72;84.81;100837.25;5246509;28;20399;-74
2023/07/12 01:29:11;;;;;;;6.30;3.20;;;;;;;21.61;88.54;100853.53;5230210;28;20064;-74
2023/07/12 01:31:44;;;;;;;10.20;3.83;;;;;;;21.63;88.13;100862.22;5228712;28;20132;-75
2023/07/12 01:34:17;;;;;;;6.90;3.10;;;;;;;21.32;97.68;100836.19;5233408;28;20030;-74
2023/07/12 01:36:48;;;;;;;7.57;3.50;;;;;;;21.50;92.99;100833.41;5235806;28;20033;-74
2023/07/12 01:39:20;;;;;;;7.07;3.20;;;;;;;21.49;96.35;100845.88;5244053;28;20032;-74
2023/07/12 01:41:51;;;;;;;7.53;3.00;;;;;;;21.06;97.31;100850.44;5240502;28;20033;-74
2023/07/12 01:44:22;;;;;;;9.73;3.67;;;;;;;21.18;95.60;100827.84;5243812;28;20037;-74
2023/07/12 01:46:54;;;;;;;9.50;3.37;;;;;;;20.79;100.00;100814.06;5240626;28;20113;-74
2023/07/12 01:49:25;;;;;;;5.77;3.40;;;;;;;21.21;98.36;100805.38;5245130;28;20047;-73
2023/07/12 01:51:57;;;;;;;5.77;3.03;;;;;;;21.26;99.40;100793.25;5248924;28;20033;-74
2023/07/12 01:54:28;;;;;;;8.83;3.03;;;;;;;21.27;100.00;100815.38;5242842;28;20036;-73
2023/07/12 01:56:59;;;;;;;6.20;3.20;;;;;;;21.06;95.93;100818.50;5241137;28;20117;-73
2023/07/12 01:59:31;;;;;;;7.30;3.40;;;;;;;20.80;99.56;100807.72;5251561;28;20052;-74
2023/07/12 02:02:02;;;;;;;8.13;3.77;;;;;;;20.79;99.49;100799.91;5246137;28;20450;-74
2023/07/12 02:04:34;;;;;;;9.13;3.27;;;;;;;21.02;100.00;100800.19;5251769;28;20031;-75
2023/07/12 02:07:05;;;;;;;5.60;3.53;;;;;;;20.73;100.00;100814.72;5241131;28;20116;-74
2023/07/12 02:09:40;;;;;;;9.30;4.10;;;;;;;20.76;100.00;100794.91;5238441;28;20523;-73
2023/07/12 02:12:11;;;;;;;8.30;3.50;;;;;;;20.65;100.00;100766.75;5244003;28;20113;-73
2023/07/12 02:14:43;;;;;;;8.13;3.60;;;;;;;20.64;100.00;100757.97;5249023;28;20128;-74
2023/07/12 02:17:14;;;;;;;9.00;3.87;;;;;;;20.51;100.00;100838.19;5238876;28;20038;-74
2023/07/12 02:19:45;;;;;;;9.03;3.83;;;;;;;20.61;100.00;100850.56;5232708;28;20048;-74
2023/07/12 02:22:17;;;;;;;8.20;3.40;;;;;;;20.59;100.00;100849.88;5237038;28;20034;-74
2023/07/12 02:24:48;;;;;;;6.97;3.20;;;;;;;20.60;100.00;100856.88;5234709;28;20065;-74
2023/07/12 02:27:19;;;;;;;7.97;3.80;;;;;;;;;;5240581;28;20156;-75
2023/07/12 02:29:51;;;;;;;5.47;3.13;;;;;;;20.06;100.00;100840.94;5222650;28;20506;-74
2023/07/12 02:32:23;;;;;;;5.00;3.47;;;;;;;19.98;100.00;100802.78;5233494;28;20033;-73
2023/07/12 02:34:54;;;;;;;7.90;3.20;;;;;;;20.34;100.00;100825.81;5235791;28;20106;-74
2023/07/12 02:37:26;;;;;;;7.53;3.13;;;;;;;20.31;100.00;100832.28;5251839;28;20041;-74
2023/07/12 02:39:57;;;;;;;7.70;3.20;;;;;;;20.09;100.00;100825.66;5226013;28;20025;-75
2023/07/12 02:42:28;;;;;;;7.03;2.97;;;;;;;20.41;100.00;100819.72;5252927;28;20654;-73
2023/07/12 02:45:00;;;;;;;8.50;2.93;;;;;;;20.23;100.00;100824.25;5246406;28;20036;-74
2023/07/12 02:47:31;;;;;;;7.20;2.97;;;;;;;20.27;100.00;100822.94;5245575;28;20644;-75
2023/07/12 02:50:05;;;;;;;6.90;2.37;;;;;;;20.16;100.00;100829.38;5247755;28;20025;-74
2023/07/12 02:52:36;;;;;;;6.45;2.83;;;;;;;19.96;100.00;100829.53;5255274;28;20025;-74
2023/07/12 02:55:08;;;;;;;4.43;2.33;;;;;;;20.17;100.00;100826.56;5243429;28;20021;-74
2023/07/12 02:57:39;;;;;;;5.77;2.50;;;;;;;19.93;100.00;100824.53;5240766;28;20496;-74
2023/07/12 03:00:11;;;;;;;6.87;2.70;;;;;;;19.79;100.00;100820.59;5245790;28;20056;-75
2023/07/12 03:02:43;;;;;;;5.03;2.47;;;;;;;19.87;100.00;100830.44;5253396;28;20651;-74
2023/07/12 03:05:14;;;;;;;5.87;2.70;;;;;;;19.85;100.00;100835.06;5255287;28;20025;-74
2023/07/12 03:07:45;;;;;;;3.97;2.10;;;;;;;19.95;100.00;100833.16;5238104;28;20044;-74
2023/07/12 03:10:17;;;;;;;4.23;2.60;;;;;;;19.97;100.00;100843.66;5243270;28;20042;-74
2023/07/12 03:12:48;;;;;;;7.10;2.40;;;;;;;19.83;100.00;100851.16;5249877;28;20059;-74
2023/07/12 03:15:20;;;;;;;5.07;2.33;;;;;;;19.75;100.00;100854.59;5253371;28;20090;-74
2023/07/12 03:17:51;;;;;;;5.63;2.37;;;;;;;19.68;100.00;100848.22;5251442;28;20032;-74
2023/07/12 03:20:23;;;;;;;7.63;3.33;;;;;;;19.80;100.00;100851.47;5228589;28;20025;-74
2023/07/12 03:22:54;;;;;;;6.50;2.77;;;;;;;19.68;100.00;100846.41;5245105;28;20060;-74
2023/07/12 03:25:25;;;;;;;5.87;2.47;;;;;;;19.59;100.00;100834.03;5236146;28;20088;-74
2023/07/12 03:27:56;;;;;;;4.80;2.10;;;;;;;19.54;100.00;100847.78;5254110;28;20025;-73
2023/07/12 03:30:28;;;;;;;5.63;2.37;;;;;;;19.44;100.00;100847.03;5234448;28;20025;-74
2023/07/12 03:32:59;;;;;;;3.90;1.90;;;;;;;19.66;100.00;100855.50;5242704;28;20487;-73
2023/07/12 03:35:30;;;;;;;4.40;2.53;;;;;;;19.67;100.00;100862.50;5238423;28;20044;-73
2023/07/12 03:38:02;;;;;;;4.80;2.20;;;;;;;19.59;100.00;100868.56;5226765;28;20129;-73
2023/07/12 03:40:33;;;;;;;5.90;2.30;;;;;;;19.50;100.00;100862.34;5226004;28;20476;-74
2023/07/12 03:43:04;;;;;;;5.63;2.10;;;;;;;19.50;100.00;100856.19;5237997;28;20082;-73
2023/07/12 03:45:36;;;;;;;6.03;2.57;;;;;;;19.45;100.00;100865.44;5239507;28;20021;-72
2023/07/12 03:48:07;;;;;;;4.53;1.93;;;;;;;19.54;100.00;100877.00;5242362;28;20025;-73
2023/07/12 03:50:41;;;;;;;6.53;2.50;;;;;;;19.46;100.00;100867.09;5250892;28;20468;-73
2023/07/12 03:53:12;;;;;;;6.85;3.00;;;;;;;19.42;100.00;100876.38;5253414;28;20021;-72
2023/07/12 03:55:45;;;;;;;4.83;2.73;;;;;;;19.27;100.00;100875.22;5237917;28;20028;-73
2023/07/12 03:58:20;;;;;;;4.13;2.37;;;;;;;19.28;100.00;100877.72;5240646;28;20125;-73
2023/07/12 04:00:51;;;;;;;6.80;3.10;;;;;;;19.03;100.00;100885.34;5248438;28;20047;-73
2023/07/12 04:03:22;;;;;;;5.87;2.90;;;;;;;19.13;100.00;100885.31;5238430;28;20021;-72
2023/07/12 04:05:54;;;;;;;7.07;3.03;;;;;;;19.05;100.00;100891.34;5241288;28;20499;-72
2023/07/12 04:08:25;;;;;;;5.83;3.13;;;;;;;19.19;100.00;100891.88;5242224;28;20021;-71
2023/07/12 04:10:57;;;;;;;6.37;3.40;;;;;;;19.12;100.00;100872.22;5234875;28;20091;-72
2023/07/12 04:13:28;;;;;;;7.90;3.60;;;;;;;18.88;100.00;100892.97;5219684;28;20540;-73
2023/07/12 04:16:01;;;;;;;6.83;2.43;;;;;;;19.03;100.00;100898.63;5233150;28;20029;-72
2023/07/12 04:18:32;;;;;;;5.73;2.87;;;;;;;19.09;100.00;100894.56;5229235;28;20116;-72
2023/07/12 04:21:04;;;;;;;8.57;3.50;;;;;;;19.30;100.00;100894.34;5234032;28;20140;-72
2023/07/12 04:23:35;;;;;;;7.97;2.33;;;;;;;19.34;100.00;100890.38;5232218;28;20117;-72
2023/07/12 04:26:07;;;;;;;12.53;4.40;;;;;;;19.08;100.00;100899.03;5233549;28;20093;-72
2023/07/12 04:28:39;;;;;;;9.17;2.90;;;;;;;19.09;100.00;100908.66;5227104;28;20034;-72
2023/07/12 04:31:12;;;;;;;7.03;3.07;;;;;;;19.12;100.00;100890.78;5231280;28;20032;-72
2023/07/12 04:33:44;;;;;;;7.47;2.50;;;;;;;19.19;100.00;100889.22;5231754;28;20025;-72
2023/07/12 04:36:17;;;;;;;6.13;2.73;;;;;;;19.15;100.00;100894.00;5236954;28;20362;-72
2023/07/12 04:38:48;;;;;;;8.80;3.23;;;;;;;19.11;100.00;100900.59;5219206;28;20045;-72
2023/07/12 04:41:20;;;;;;;7.17;2.90;;;;;;;19.06;100.00;100897.50;5222824;28;20030;-72
2023/07/12 04:43:51;;;;;;;9.07;2.87;;;;;;;19.10;100.00;100888.25;5235916;28;20507;-72
2023/07/12 04:46:22;;;;;;;6.47;2.93;;;;;;;19.18;100.00;100895.53;5249477;28;20075;-72
2023/07/12 04:48:54;;;;;;;6.17;2.57;;;;;;;19.08;100.00;100890.22;5238987;28;20021;-72
2023/07/12 04:51:25;;;;;;;5.07;2.17;;;;;;;19.03;100.00;100893.31;5244594;28;20040;-72
2023/07/12 04:53:56;;;;;;;8.23;2.90;;;;;;;19.03;100.00;100890.66;5247248;28;20548;-72
2023/07/12 04:56:28;;;;;;;10.90;3.17;;;;;;;18.93;100.00;100889.88;5251119;28;20025;-72
2023/07/12 04:58:59;;;;;;;8.40;2.43;;;;;;;19.03;100.00;100897.78;5252223;28;20029;-73
2023/07/12 05:01:31;;;;;;;9.40;2.63;;;;;;;18.97;100.00;100889.44;5238324;28;20064;-72
2023/07/12 05:04:03;;;;;;;7.23;2.57;;;;;;;18.89;100.00;100901.75;5244138;28;20033;-72
2023/07/12 05:06:34;;;;;;;8.07;2.80;;;;;;;18.94;100.00;100894.19;5234803;28;20042;-72
2023/07/12 05:09:05;;;;;;;9.07;3.40;;;;;;;18.97;100.00;100891.25;5252455;28;20025;-72
2023/07/12 05:11:37;;;;;;;6.20;2.83;;;;;;;18.90;100.00;100911.41;5244151;28;20061;-72
2023/07/12 05:14:08;;;;;;;5.37;2.60;;;;;;;18.84;100.00;100905.69;5236812;28;20051;-72
2023/07/12 05:16:39;;;;;;;7.57;3.10;;;;;;;18.84;100.00;100916.31;5228401;28;20029;-72
2023/07/12 05:19:11;;;;;;;5.63;2.70;;;;;;;18.98;100.00;100899.06;5243734;28;20025;-72
2023/07/12 05:21:42;;;;;;;8.57;2.33;;;;;;;18.99;100.00;100899.88;5249084;28;20063;-71
2023/07/12 05:24:14;;;;;;;13.90;3.47;;;;;;;19.10;100.00;100915.63;5243647;28;20391;-72
2023/07/12 05:26:45;;;;;;;8.63;2.37;;;;;;;19.09;100.00;100929.88;5234184;28;20088;-73
2023/07/12 05:29:16;;;;;;;8.47;3.07;;;;;;;19.16;100.00;100934.66;5233363;28;20025;-72
2023/07/12 05:31:47;;;;;;;6.27;2.67;;;;;;;19.16;100.00;100932.00;5245665;28;20115;-72
2023/07/12 05:34:19;;;;;;;8.03;3.03;;;;;;;19.13;100.00;100927.81;5225019;28;20040;-72
2023/07/12 05:36:50;;;;;;;8.30;3.13;;;;;;;19.16;100.00;100924.03;5232879;28;20030;-72
2023/07/12 05:39:21;;;;;;;7.37;3.07;;;;;;;19.21;100.00;100935.03;5227225;28;20041;-72
2023/07/12 05:41:53;;;;;;;9.27;3.03;;;;;;;19.14;100.00;100932.16;5233031;28;20029;-72
2023/07/12 05:44:24;;;;;;;8.83;2.07;;;;;;;19.03;100.00;100916.34;5228554;28;20033;-72
2023/07/12 05:46:56;;;;;;;8.13;2.57;;;;;;;19.01;100.00;100916.50;5232615;28;20040;-71
2023/07/12 05:49:28;;;;;;;6.37;2.57;;;;;;;19.04;100.00;100920.72;5229119;28;20022;-72
2023/07/12 05:51:59;;;;;;;7.40;2.80;;;;;;;19.06;100.00;100935.47;5233384;28;20025;-71
2023/07/12 05:54:30;;;;;;;9.20;2.97;;;;;;;19.17;100.00;100934.50;5224218;28;20021;-71
2023/07/12 05:57:02;;;;;;;8.40;2.90;;;;;;;19.06;100.00;100919.56;5231644;28;20033;-70
2023/07/12 05:59:33;;;;;;;7.63;2.93;;;;;;;19.08;100.00;100925.56;5229039;28;20047;-70
2023/07/12 06:02:08;;;;;;;9.03;3.00;;;;;;;19.03;100.00;100934.94;5231422;28;20025;-70
2023/07/12 06:04:39;;;;;;;8.27;3.20;;;;;;;19.12;100.00;100949.19;5231675;28;20091;-70
2023/07/12 06:07:10;;;;;;;7.37;3.10;;;;;;;19.06;100.00;100946.09;5230227;28;20030;-70
2023/07/12 06:09:42;;;;;;;5.67;3.20;;;;;;;19.07;100.00;100958.41;5229340;28;20073;-70
2023/07/12 06:12:13;;;;;;;8.23;3.17;;;;;;;19.00;100.00;100938.72;5229222;28;20052;-71
2023/07/12 06:14:44;;;;;;;7.80;3.37;;;;;;;19.04;100.00;100948.06;5231759;28;20068;-70
2023/07/12 06:17:16;;;;;;;9.87;3.83;;;;;;;19.12;100.00;100957.16;5231708;28;20030;-70
2023/07/12 06:19:47;;;;;;;8.70;2.43;;;;;;;19.22;100.00;100945.50;5234452;28;20115;-71
2023/07/12 06:22:18;;;;;;;8.27;3.10;;;;;;;19.38;100.00;100949.34;5232003;28;20121;-70
2023/07/12 06:24:50;;;;;;;10.33;3.63;;;;;;;19.34;100.00;100956.78;5238695;28;20587;-70
2023/07/12 06:27:21;;;;;;;7.17;3.33;;;;;;;19.40;100.00;100951.84;5233778;28;20112;-70
2023/07/12 06:29:52;;;;;;;9.57;3.17;;;;;;;19.42;100.00;100949.91;5232846;28;20040;-70
2023/07/12 06:32:24;;;;;;;9.37;2.83;;;;;;;19.56;100.00;100965.34;5233289;28;20038;-70
2023/07/12 06:34:55;;;;;;;10.07;3.40;;;;;;;19.61;100.00;100966.69;5232016;28;20036;-70
2023/07/12 06:37:26;;;;;;;9.60;3.43;;;;;;;19.63;100.00;100967.38;5234370;28;20098;-72
2023/07/12 06:39:57;;;;;;;10.07;3.40;;;;;;;19.67;100.00;100976.75;5231501;28;20409;-71
2023/07/12 06:42:29;;;;;;;9.03;2.87;;;;;;;19.72;100.00;100974.47;5238625;28;20021;-70
2023/07/12 06:45:00;;;;;;;8.20;2.70;;;;;;;19.63;100.00;100988.66;5240718;28;20037;-71
2023/07/12 06:47:32;;;;;;;9.00;3.20;;;;;;;19.68;100.00;100986.38;5225904;28;20033;-71
2023/07/12 06:50:04;;;;;;;7.70;2.90;;;;;;;19.72;100.00;100987.75;5234478;28;20029;-72
2023/07/12 06:52:35;;;;;;;9.03;3.10;;;;;;;19.73;100.00;100989.41;5224360;28;20026;-71
2023/07/12 06:55:07;;;;;;;8.53;3.30;;;;;;;19.80;100.00;101003.78;5234945;28;20551;-70
2023/07/12 06:57:38;;;;;;;9.47;3.27;;;;;;;19.79;100.00;100994.13;5238855;28;20040;-70
2023/07/12 07:00:10;;;;;;;11.47;3.40;;;;;;;19.74;100.00;100991.09;5234310;28;20029;-70
2023/07/12 07:02:42;;;;;;;8.23;2.37;;;;;;;19.68;100.00;100997.84;5234030;28;20029;-72
2023/07/12 07:05:13;;;;;;;12.83;3.17;;;;;;;19.88;100.00;101015.50;5242198;28;20033;-75
2023/07/12 07:07:46;;;;;;;12.30;3.23;;;;;;;19.94;100.00;101022.84;5227883;28;20040;-74
2023/07/12 07:10:19;;;;;;;12.02;2.97;;;;;;;19.97;100.00;101019.91;5234424;28;20041;-70
2023/07/12 07:12:50;;;;;;;10.73;2.67;;;;;;;19.99;100.00;101015.28;5229803;28;20057;-72
2023/07/12 07:15:21;;;;;;;10.80;3.00;;;;;;;20.50;100.00;101014.78;5233232;28;20041;-71
2023/07/12 07:17:53;;;;;;;11.23;3.87;;;;;;;20.67;100.00;101013.06;5232021;28;20045;-71
2023/07/12 07:20:24;;;;;;;9.57;3.17;;;;;;;20.79;100.00;101007.50;5235718;28;20061;-71
2023/07/12 07:22:55;;;;;;;11.23;2.80;;;;;;;21.13;100.00;101021.88;5234570;28;20037;-71
2023/07/12 07:25:28;;;;;;;10.63;3.23;;;;;;;21.21;97.73;101024.59;5233971;28;20125;-72
2023/07/12 07:27:59;;;;;;;5.73;2.00;;;;;;;21.01;95.40;101024.81;5236341;28;20036;-71
2023/07/12 07:30:31;;;;;;;7.57;2.60;;;;;;;21.09;93.52;101026.69;5235473;28;20026;-71
2023/07/12 07:33:02;;;;;;;12.97;2.83;;;;;;;20.94;95.31;101034.44;5234691;28;20049;-71
2023/07/12 07:35:34;;;;;;;15.83;3.13;;;;;;;20.91;93.78;101040.84;5230280;28;20029;-71
2023/07/12 07:38:06;;;;;;;9.77;3.03;;;;;;;20.85;92.79;101037.97;5230615;28;20097;-71
2023/07/12 07:40:39;;;;;;;12.50;3.17;;;;;;;20.72;91.87;101054.38;5244770;28;20017;-71
2023/07/12 07:43:14;;;;;;;7.82;2.97;;;;;;;20.90;91.54;101055.16;5239588;28;20026;-71
2023/07/12 07:45:45;;;;;;;13.10;4.03;;;;;;;20.91;90.84;101051.50;5238212;28;20052;-73
2023/07/12 07:48:16;;;;;;;8.27;3.47;;;;;;;20.96;91.04;101043.09;5226820;28;20025;-73
2023/07/12 07:50:47;;;;;;;13.13;3.30;;;;;;;21.30;91.39;101051.25;5238426;28;20068;-71
2023/07/12 07:53:19;;;;;;;9.70;2.90;;;;;;;21.94;90.55;101053.53;5237728;28;20021;-71
2023/07/12 07:55:51;;;;;;;9.77;2.97;;;;;;;22.10;86.00;101057.25;5235861;28;20056;-71
2023/07/12 07:58:22;;;;;;;11.70;3.00;;;;;;;22.06;84.31;101066.59;5236228;28;20118;-71
2023/07/12 08:00:53;;;;;;;5.80;2.50;;;;;;;22.08;84.55;101064.59;5236025;28;20028;-71
2023/07/12 08:03:25;;;;;;;5.80;2.28;;;;;;;21.96;84.17;101054.22;5236002;28;20026;-71
2023/07/12 08:06:05;;;;;;;9.73;3.10;;;;;;;22.09;82.52;101066.25;5240005;28;20464;-71
2023/07/12 08:08:36;;;;;;;10.77;3.15;;;;;;;21.76;81.62;101072.31;5238265;28;20052;-71
2023/07/12 08:11:08;;;;;;;7.30;2.45;;;;;;;21.69;83.23;101068.59;5234693;28;20700;-71
2023/07/12 08:13:39;;;;;;;9.93;3.10;;;;;;;21.58;81.29;101077.72;5227585;28;20083;-71
2023/07/12 08:16:10;;;;;;;12.50;3.00;;;;;;;21.38;82.52;101072.63;5224802;28;20026;-71
2023/07/12 08:18:42;;;;;;;15.03;4.33;;;;;;;21.37;82.81;101081.59;5225589;28;20120;-71
2023/07/12 08:21:13;;;;;;;9.60;2.57;;;;;;;21.28;83.91;101072.72;5232735;28;20048;-71
2023/07/12 08:23:46;;;;;;;11.70;2.97;;;;;;;21.28;83.64;101084.22;5237196;28;20056;-71
2023/07/12 08:26:19;;;;;;;11.77;3.97;;;;;;;21.20;84.28;101083.34;5235769;28;20033;-72
2023/07/12 08:28:50;;;;;;;13.20;3.40;;;;;;;21.32;83.48;101083.91;5235283;28;20022;-72
2023/07/12 08:31:22;;;;;;;10.37;3.30;;;;;;;21.22;86.58;101081.34;5234117;28;20022;-72
2023/07/12 08:33:55;;;;;;;13.00;3.77;;;;;;;21.36;84.23;101079.94;5235159;28;20029;-72
2023/07/12 08:36:26;;;;;;;12.33;4.27;;;;;;;21.40;84.67;101086.59;5231854;28;20112;-72
2023/07/12 08:38:57;;;;;;;8.23;2.77;;;;;;;21.44;84.25;101092.47;5231246;28;20042;-78
2023/07/12 08:41:29;;;;;;;13.63;2.40;;;;;;;21.33;84.35;101082.94;5225086;28;20030;-73
2023/07/12 08:44:02;;;;;;;10.97;2.87;;;;;;;21.37;83.84;101102.91;5241857;28;20044;-72
2023/07/12 08:46:40;;;;;;;13.30;3.93;;;;;;;21.44;84.51;101095.97;5246646;28;20100;-74
2023/07/12 08:49:14;;;;;;;12.90;3.67;;;;;;;21.46;82.62;101095.81;5254903;28;20468;-73
2023/07/12 08:51:46;;;;;;;;;;;;;;;21.91;80.05;101091.19;5255798;28;20534;-74
2023/07/12 08:54:25;;;;;;;7.90;2.80;;;;;;;21.59;82.58;101095.38;5245785;28;19916;-73
2023/07/12 08:57:12;;;;;;;9.07;3.13;;;;;;;21.69;79.24;101104.09;5247494;28;20061;-73
2023/07/12 09:00:00;;;;;;;12.33;3.17;;;;;;;21.60;78.50;101102.38;5244538;28;20029;-74
2023/07/12 09:02:32;;;;;;;12.07;3.43;;;;;;;21.59;77.15;101095.38;5232605;28;20022;-73
2023/07/12 09:05:19;;;;;;;8.10;2.43;;;;;;;21.82;76.94;101106.31;5234336;28;20029;-73
2023/07/12 09:08:00;;;;;;;10.27;3.03;;;;;;;21.68;76.86;101109.59;5225234;28;20432;-71
2023/07/12 09:10:44;;;;;;;10.13;2.70;;;;;;;22.45;73.33;101103.34;5234859;28;20443;-71
2023/07/12 09:13:16;;;;;;;8.43;2.83;;;;;;;22.89;67.68;101106.72;5225759;28;20073;-71
2023/07/12 09:15:50;;;;;;;13.38;3.15;;;;;;;23.20;65.52;101103.34;5226624;28;20573;-71
2023/07/12 09:18:32;;;;;;;8.50;3.25;;;;;;;23.91;66.82;101104.47;5225677;28;20022;-71
2023/07/12 09:21:16;;;;;;;8.90;2.53;;;;;;;24.30;62.83;101096.59;5225078;28;20048;-72
2023/07/12 09:23:48;;;;;;;12.25;3.30;;;;;;;24.20;59.62;101096.00;5226602;28;20033;-72
2023/07/12 09:26:29;;;;;;;7.28;2.97;;;;;;;24.45;58.00;101098.50;5241622;28;20024;-72
2023/07/12 09:29:12;;;;;;;10.93;2.78;;;;;;;24.72;58.13;101090.91;5233878;28;20108;-72
2023/07/12 09:31:45;;;;;;;10.83;3.03;;;;;;;24.53;57.42;101093.94;5255226;28;20028;-72
2023/07/12 09:34:16;;;;;;;8.10;2.50;;;;;;;25.17;53.41;101095.59;5234837;28;20025;-71
2023/07/12 09:36:55;;;;;;;8.57;2.72;;;;;;;25.74;54.21;101095.97;5240136;28;20060;-73
2023/07/12 09:39:27;;;;;;;8.32;2.53;;;;;;;25.82;52.65;101081.59;5237145;28;20411;-72
2023/07/12 09:42:01;;;;;;;11.18;3.58;;;;;;;25.78;54.04;101078.44;5240309;28;20029;-73
2023/07/12 09:44:32;;;;;;;;;;;;;;;26.78;53.51;101095.78;5255629;28;20413;-72
2023/07/12 09:47:28;;;;;;;10.48;3.10;;;;;;;25.89;50.52;101093.25;5224647;28;19924;-72
2023/07/12 09:50:15;;;;;;;8.38;2.75;;;;;;;26.01;53.15;101090.88;5224707;28;20083;-72
2023/07/12 09:52:57;;;;;;;8.90;2.83;;;;;;;26.34;48.67;101092.28;5224965;28;20037;-72
2023/07/12 09:55:53;;;;;;;8.82;3.10;;;;;;;26.65;47.45;101083.06;5238085;28;20752;-72
2023/07/12 09:58:35;;;;;;;7.90;2.28;;;;;;;26.38;48.44;101080.16;5244976;28;20041;-72
2023/07/12 10:01:22;;;;;;;7.28;2.15;;;;;;;26.48;49.04;101066.38;5230296;28;20030;-72
2023/07/12 10:03:58;;;;;;;8.45;2.53;;;;;;;26.64;46.39;101077.88;5234664;28;20033;-71
2023/07/12 10:06:42;;;;;;;7.50;2.90;;;;;;;26.98;46.45;101062.88;5223359;28;20064;-71
2023/07/12 10:09:20;;;;;;;7.70;2.35;;;;;;;27.25;45.53;101068.41;5226930;28;20476;-72
2023/07/12 10:12:06;;;;;;;8.68;1.95;;;;;;;28.36;46.47;101061.38;5230112;28;20036;-74
2023/07/12 10:14:41;;;;;;;6.63;2.08;;;;;;;28.42;41.74;101065.91;5226923;28;20026;-70
2023/07/12 10:17:25;;;;;;;9.70;2.17;;;;;;;28.81;42.60;101067.97;5228546;28;20029;-71
2023/07/12 10:19:56;;;;;;;6.57;2.17;;;;;;;28.17;41.09;101063.81;5229054;28;20036;-71
2023/07/12 10:22:33;;;;;;;8.00;2.30;;;;;;;27.87;41.51;101069.53;5233830;28;20033;-71
2023/07/12 10:25:22;;;;;;;7.50;2.30;;;;;;;28.20;43.45;101068.78;5233866;28;20373;-70
2023/07/12 10:28:16;;;;;;;9.63;2.83;;;;;;;28.22;42.88;101065.88;5246404;28;20499;-69
2023/07/12 10:30:49;;;;;;;5.60;1.83;;;;;;;27.66;42.18;101074.81;5239832;28;20127;-70
2023/07/12 10:33:29;;;;;;;8.38;2.65;;;;;;;27.57;42.58;101075.19;5224822;28;20044;-70
2023/07/12 10:36:07;;;;;;;8.80;2.65;;;;;;;27.49;43.08;101077.00;5241613;28;20667;-70
2023/07/12 10:38:38;;;;;;;8.38;2.08;;;;;;;27.24;45.54;101082.91;5232165;28;20037;-71
2023/07/12 10:41:20;;;;;;;7.32;2.03;;;;;;;27.30;44.32;101076.72;5236311;28;20033;-71
2023/07/12 10:44:04;;;;;;;6.97;2.10;;;;;;;27.58;46.00;101079.53;5255559;28;20030;-70
2023/07/12 10:46:41;;;;;;;;;;;;;;;28.22;45.59;101072.09;5259028;28;20379;-71
2023/07/12 10:49:19;;;;;;;6.07;2.03;;;;;;;27.56;43.71;101074.34;5233351;28;19917;-70
2023/07/12 10:52:18;;;;;;;7.75;2.22;;;;;;;27.77;42.53;101088.75;5233444;28;20014;-71
2023/07/12 10:55:02;;;;;;;6.40;2.10;;;;;;;27.49;44.52;101078.88;5236255;28;20095;-70
2023/07/12 10:57:46;;;;;;;6.63;2.05;;;;;;;27.34;44.35;101087.06;5236690;28;20033;-71
2023/07/12 11:00:24;;;;;;;11.25;2.33;;;;;;;27.21;43.46;101083.28;5237073;28;20025;-70
2023/07/12 11:03:03;;;;;;;12.13;2.53;;;;;;;27.08;43.91;101091.25;5225535;28;20033;-70
2023/07/12 11:05:39;;;;;;;7.43;2.10;;;;;;;26.95;43.70;101084.72;5236886;28;20108;-70
2023/07/12 11:08:53;;;;;;;9.50;2.97;;;;;;;27.24;43.49;101090.97;5235621;28;20029;-70
2023/07/12 11:11:33;;;;;;;9.38;2.35;;;;;;;26.66;43.72;101087.41;5210709;28;20042;-70
2023/07/12 11:14:45;;;;;;;8.60;2.20;;;;;;;26.63;44.60;101082.44;5226589;28;20034;-70
2023/07/12 11:17:20;;;;;;;13.20;2.97;;;;;;;26.99;44.07;101079.78;5228612;28;20953;-70
2023/07/12 11:20:16;;;;;;;8.63;2.50;;;;;;;27.40;43.54;101086.28;5234924;28;20548;-70
2023/07/12 11:23:07;;;;;;;6.13;1.98;;;;;;;27.49;43.46;101077.00;5233686;28;20071;-71
2023/07/12 11:25:44;;;;;;;10.73;2.17;;;;;;;27.20;42.79;101081.63;5242869;28;20496;-70
2023/07/12 11:28:22;;;;;;;6.68;2.10;;;;;;;27.44;42.89;101081.34;5224234;28;20049;-70
2023/07/12 11:31:16;;;;;;;8.38;2.08;;;;;;;27.71;41.38;101065.34;5236488;28;20108;-70
2023/07/12 11:33:52;;;;;;;6.72;1.77;;;;;;;27.71;40.70;101068.03;5234394;28;20033;-70
2023/07/12 11:36:28;;;;;;;6.72;1.98;;;;;;;27.49;40.83;101073.50;5235458;28;20040;-70
2023/07/12 11:39:00;;;;;;;7.03;2.00;;;;;;;27.25;40.82;101076.47;5233842;28;20099;-70
2023/07/12 11:41:32;;;;;;;8.68;1.90;;;;;;;27.34;40.78;101084.38;5233432;28;20622;-70
2023/07/12 11:44:06;;;;;;;8.20;2.15;;;;;;;27.37;40.35;101092.06;5236131;28;20073;-70
2023/07/12 11:46:38;;;;;;;14.30;3.15;;;;;;;27.35;40.84;101089.56;5236070;28;20026;-70
2023/07/12 11:49:17;;;;;;;12.40;2.53;;;;;;;27.60;41.85;101086.38;5235953;28;20025;-70
2023/07/12 11:51:54;;;;;;;5.38;1.70;;;;;;;27.55;40.37;101083.44;5235171;28;20026;-70
2023/07/12 11:54:37;;;;;;;6.93;1.95;;;;;;;27.41;40.69;101082.56;5235985;28;20032;-70